Time;durP1;ratioP1;P1;durP2;ratioP2;P2;SDS_P1;SDS_P2;PMS_P1;PMS_P2;Temp;Humidity;BMP_temperature;BMP_pressure;BME280_temperature;BME280_humidity;BME280_pressure;Samples;Min_cycle;Max_cycle;Signal;HPM_P1;HPM_P2
2023/01/17 00:02:53;;;;;;;46.85;28.50;;;;;;;;;;10131025;28;20132;-70
2023/01/17 00:13:00;;;;;;;41.60;25.95;;;;;;;;;;10131307;28;20065;-70
2023/01/17 00:17:54;;;;;;;43.83;28.33;;;;;;;;;;10130018;28;20161;-71
2023/01/17 01:35:16;;;;;;;43.55;29.85;;;;;;;;;;10112568;28;20048;-70
2023/01/17 01:40:13;;;;;;;44.10;31.13;;;;;;;;;;10121224;28;20055;-70
2023/01/17 01:45:45;;;;;;;48.30;30.67;;;;;;;;;;10109876;28;20056;-70
2023/01/17 01:50:39;;;;;;;42.53;29.60;;;;;;;;;;10113209;28;20049;-70
2023/01/17 01:55:39;;;;;;;48.13;31.58;;;;;;;;;;10109372;28;20516;-71
2023/01/17 02:00:33;;;;;;;49.17;32.33;;;;;;;;;;10136911;28;20052;-70
2023/01/17 02:05:27;;;;;;;44.38;28.13;;;;;;;;;;10126928;28;20045;-70
2023/01/17 02:10:20;;;;;;;44.90;31.80;;;;;;;;;;10135814;28;20047;-70
2023/01/17 02:15:14;;;;;;;41.78;28.15;;;;;;;;;;10107291;28;20095;-70
2023/01/17 02:20:32;;;;;;;42.33;28.52;;;;;;;;;;10144158;28;20451;-70
2023/01/17 02:25:49;;;;;;;42.67;28.50;;;;;;;;;;10095376;28;20131;-70
2023/01/17 02:30:47;;;;;;;41.28;28.85;;;;;;;;;;10103824;28;20049;-71
2023/01/17 02:35:41;;;;;;;46.88;27.95;;;;;;;;;;10108114;28;20114;-70
2023/01/17 02:40:56;;;;;;;46.72;29.17;;;;;;;;;;10112529;28;20052;-70
2023/01/17 02:45:49;;;;;;;45.15;32.83;;;;;;;;;;10122706;28;20477;-71
2023/01/17 02:51:09;;;;;;;41.72;29.55;;;;;;;;;;10110771;28;20615;-70
2023/01/17 02:56:49;;;;;;;43.60;30.20;;;;;;;;;;10128170;28;20043;-70
2023/01/17 03:02:32;;;;;;;46.40;29.42;;;;;;;;;;10117068;28;20055;-70
2023/01/17 03:07:27;;;;;;;40.10;25.88;;;;;;;;;;10008019;28;20089;-70
2023/01/17 03:12:21;;;;;;;44.90;27.67;;;;;;;;;;10119955;28;20419;-70
2023/01/17 03:17:14;;;;;;;40.85;28.80;;;;;;;;;;10138038;28;20048;-70
2023/01/17 03:22:08;;;;;;;42.40;27.73;;;;;;;;;;10138584;28;20085;-69
2023/01/17 03:27:01;;;;;;;49.55;31.08;;;;;;;;;;10135170;28;20064;-70
2023/01/17 03:31:54;;;;;;;47.30;31.25;;;;;;;;;;10114235;28;20052;-70
2023/01/17 03:36:48;;;;;;;42.15;27.50;;;;;;;;;;10137429;28;20075;-70
2023/01/17 03:41:42;;;;;;;46.00;28.67;;;;;;;;;;10135386;28;20053;-69
2023/01/17 03:46:36;;;;;;;46.58;31.55;;;;;;;;;;10123516;28;20162;-69
2023/01/17 03:51:30;;;;;;;48.28;28.98;;;;;;;;;;10111658;28;20049;-69
2023/01/17 03:56:24;;;;;;;48.63;31.20;;;;;;;;;;10125276;28;20398;-70
2023/01/17 04:01:19;;;;;;;44.60;29.17;;;;;;;;;;10135967;28;20054;-69
2023/01/17 04:06:13;;;;;;;42.63;28.90;;;;;;;;;;10130504;28;20489;-70
2023/01/17 04:11:05;;;;;;;45.85;29.10;;;;;;;;;;10112055;28;20045;-70
2023/01/17 04:15:58;;;;;;;53.60;33.75;;;;;;;;;;10113993;28;20071;-70
2023/01/17 04:20:53;;;;;;;54.13;34.03;;;;;;;;;;10112205;28;20565;-70
2023/01/17 04:25:47;;;;;;;46.40;31.35;;;;;;;;;;10109595;28;20079;-70
2023/01/17 04:30:39;;;;;;;45.13;29.45;;;;;;;;;;10108017;28;20044;-70
2023/01/17 04:35:33;;;;;;;42.55;30.73;;;;;;;;;;10129509;28;20083;-70
2023/01/17 04:40:28;;;;;;;42.90;30.83;;;;;;;;;;10113909;28;20057;-70
2023/01/17 04:45:20;;;;;;;47.72;30.48;;;;;;;;;;10123298;28;20118;-70
2023/01/17 04:50:13;;;;;;;45.85;31.63;;;;;;;;;;10112066;28;20079;-72
2023/01/17 04:55:07;;;;;;;52.13;34.90;;;;;;;;;;10131145;28;20107;-71
2023/01/17 05:00:01;;;;;;;55.05;36.00;;;;;;;;;;10124298;28;20061;-71
2023/01/17 05:04:54;;;;;;;56.10;35.95;;;;;;;;;;10128904;28;20072;-71
2023/01/17 05:09:48;;;;;;;53.47;36.08;;;;;;;;;;10131765;28;20044;-70
2023/01/17 05:14:42;;;;;;;55.08;30.92;;;;;;;;;;10130978;28;20064;-70
2023/01/17 05:19:35;;;;;;;58.63;35.65;;;;;;;;;;10135790;28;20048;-70
2023/01/17 05:24:30;;;;;;;55.13;35.10;;;;;;;;;;10109342;28;20131;-70
2023/01/17 05:29:23;;;;;;;54.60;34.40;;;;;;;;;;10133078;28;20492;-70
2023/01/17 05:34:16;;;;;;;49.92;32.78;;;;;;;;;;10129596;28;20417;-68
2023/01/17 05:39:09;;;;;;;48.58;31.70;;;;;;;;;;10111761;28;20055;-70
2023/01/17 05:44:03;;;;;;;41.63;29.58;;;;;;;;;;10123103;28;20060;-69
2023/01/17 05:48:57;;;;;;;45.28;32.05;;;;;;;;;;10126792;28;20421;-69
2023/01/17 05:53:51;;;;;;;48.72;32.85;;;;;;;;;;10129750;28;20057;-69
2023/01/17 05:58:45;;;;;;;47.05;32.45;;;;;;;;;;10109518;28;20049;-70
2023/01/17 06:03:39;;;;;;;48.97;33.30;;;;;;;;;;10109161;28;20095;-69
2023/01/17 06:08:32;;;;;;;52.10;34.00;;;;;;;;;;10123446;28;20463;-69
2023/01/17 06:13:26;;;;;;;47.03;31.38;;;;;;;;;;10127348;28;20072;-69
2023/01/17 06:18:17;;;;;;;45.47;30.70;;;;;;;;;;10123398;28;20059;-69
2023/01/17 06:23:12;;;;;;;45.42;31.05;;;;;;;;;;10109812;28;20053;-69
2023/01/17 06:28:09;;;;;;;47.75;31.45;;;;;;;;;;10122510;28;20044;-70
2023/01/17 06:33:02;;;;;;;51.17;32.05;;;;;;;;;;10124330;28;20285;-70
2023/01/17 06:37:57;;;;;;;52.33;31.08;;;;;;;;;;10119319;28;20549;-70
2023/01/17 06:42:50;;;;;;;54.17;31.40;;;;;;;;;;10121151;28;20113;-70
2023/01/17 06:47:43;;;;;;;56.25;32.85;;;;;;;;;;10126239;28;20056;-69
2023/01/17 06:52:37;;;;;;;58.30;35.55;;;;;;;;;;10124938;28;20049;-69
2023/01/17 06:57:31;;;;;;;52.30;32.08;;;;;;;;;;10122943;28;20040;-68
2023/01/17 07:02:25;;;;;;;54.80;35.13;;;;;;;;;;10126981;28;20048;-68
2023/01/17 07:07:18;;;;;;;56.22;34.75;;;;;;;;;;10119150;28;20052;-68
2023/01/17 07:12:13;;;;;;;55.17;34.58;;;;;;;;;;10120744;28;20059;-68
2023/01/17 07:17:06;;;;;;;64.57;36.97;;;;;;;;;;10119541;28;20381;-68
2023/01/17 07:21:59;;;;;;;54.45;35.13;;;;;;;;;;10121760;28;20045;-68
2023/01/17 07:26:53;;;;;;;56.13;35.58;;;;;;;;;;10123196;28;20416;-68
2023/01/17 07:31:48;;;;;;;63.67;36.22;;;;;;;;;;10142678;28;20043;-68
2023/01/17 07:36:41;;;;;;;56.17;32.17;;;;;;;;;;10118581;28;20451;-69
2023/01/17 07:41:40;;;;;;;56.60;36.38;;;;;;;;;;10128884;28;20051;-68
2023/01/17 07:46:33;;;;;;;47.95;33.35;;;;;;;;;;10150588;28;20057;-68
2023/01/17 07:51:27;;;;;;;44.10;29.23;;;;;;;;;;10137854;28;20139;-68
2023/01/17 07:56:19;;;;;;;45.88;29.65;;;;;;;;;;10114014;28;20124;-69
2023/01/17 08:01:13;;;;;;;45.38;31.23;;;;;;;;;;10119962;28;20052;-69
2023/01/17 08:06:23;;;;;;;46.08;29.38;;;;;;;;;;10121246;28;20045;-69
2023/01/17 08:11:16;;;;;;;46.08;31.88;;;;;;;;;;10115546;28;20552;-69
2023/01/17 08:16:11;;;;;;;43.45;29.95;;;;;;;;;;10125764;28;20056;-69
2023/01/17 08:21:06;;;;;;;45.05;30.35;;;;;;;;;;10153461;28;20056;-69
2023/01/17 08:25:59;;;;;;;43.55;26.98;;;;;;;;;;10147990;28;20102;-73
2023/01/17 08:30:54;;;;;;;46.70;30.23;;;;;;;;;;10142715;28;20394;-69
2023/01/17 08:35:54;;;;;;;45.70;30.35;;;;;;;;;;10133708;28;20052;-68
2023/01/17 08:40:48;;;;;;;49.22;31.73;;;;;;;;;;10126987;28;20109;-68
2023/01/17 08:45:45;;;;;;;44.72;29.33;;;;;;;;;;10107753;28;20469;-68
2023/01/17 08:50:40;;;;;;;51.75;31.98;;;;;;;;;;10125041;28;20102;-68
2023/01/17 08:55:38;;;;;;;53.88;34.13;;;;;;;;;;10120146;28;20052;-68
2023/01/17 09:00:31;;;;;;;60.45;34.20;;;;;;;;;;10109773;28;20454;-68
2023/01/17 09:05:25;;;;;;;49.72;29.35;;;;;;;;;;10121187;28;20087;-68
2023/01/17 09:10:19;;;;;;;46.88;30.42;;;;;;;;;;10115630;28;20125;-68
2023/01/17 09:15:16;;;;;;;60.28;34.83;;;;;;;;;;10145901;28;20119;-68
2023/01/17 09:20:11;;;;;;;54.63;34.60;;;;;;;;;;10114037;28;20075;-68
2023/01/17 09:25:07;;;;;;;54.92;34.10;;;;;;;;;;10105542;28;20057;-68
2023/01/17 09:30:00;;;;;;;60.95;35.25;;;;;;;;;;10107811;28;20517;-68
2023/01/17 09:34:59;;;;;;;54.70;34.30;;;;;;;;;;10107714;28;20068;-70
2023/01/17 09:39:52;;;;;;;64.70;35.30;;;;;;;;;;10114292;28;20071;-69
2023/01/17 09:44:50;;;;;;;57.70;34.60;;;;;;;;;;10110426;28;20053;-68
2023/01/17 09:49:45;;;;;;;58.42;34.65;;;;;;;;;;10125794;28;20718;-68
2023/01/17 09:54:40;;;;;;;53.30;34.33;;;;;;;;;;10115774;28;20114;-67
2023/01/17 09:59:40;;;;;;;57.55;36.40;;;;;;;;;;10127127;28;20056;-68
2023/01/17 10:05:03;;;;;;;60.90;35.70;;;;;;;;;;10132408;28;20052;-68
2023/01/17 10:10:16;;;;;;;55.00;33.78;;;;;;;;;;10119519;28;20070;-68
2023/01/17 10:15:51;;;;;;;53.47;33.25;;;;;;;;;;10123727;28;20040;-68
2023/01/17 10:21:09;;;;;;;61.85;35.40;;;;;;;;;;10114341;28;20087;-68
2023/01/17 10:26:17;;;;;;;54.35;32.30;;;;;;;;;;10109745;28;20440;-68
2023/01/17 10:31:19;;;;;;;53.63;31.17;;;;;;;;;;10125036;28;20044;-68
2023/01/17 10:36:35;;;;;;;53.55;32.10;;;;;;;;;;10124160;28;20428;-68
2023/01/17 10:41:31;;;;;;;54.15;32.22;;;;;;;;;;10128441;28;20063;-68
2023/01/17 10:46:29;;;;;;;49.90;31.10;;;;;;;;;;10118521;28;21520;-68
2023/01/17 10:52:24;;;;;;;50.75;31.90;;;;;;;;;;10150237;28;20419;-68
2023/01/17 10:57:22;;;;;;;47.78;30.15;;;;;;;;;;10080767;28;20491;-68
2023/01/17 11:02:41;;;;;;;55.08;32.47;;;;;;;;;;10105208;28;20057;-68
2023/01/17 11:07:36;;;;;;;56.20;31.95;;;;;;;;;;10135113;28;20048;-68
2023/01/17 11:12:43;;;;;;;53.95;31.35;;;;;;;;;;10130029;28;20132;-68
2023/01/17 11:17:51;;;;;;;52.28;30.92;;;;;;;;;;10126491;28;20040;-68
2023/01/17 11:23:03;;;;;;;54.27;33.47;;;;;;;;;;10126147;28;20063;-68
2023/01/17 11:28:29;;;;;;;45.63;29.60;;;;;;;;;;10113540;28;20311;-70
2023/01/17 11:33:55;;;;;;;42.08;24.83;;;;;;;;;;10131885;28;20048;-68
2023/01/17 11:38:57;;;;;;;42.72;26.75;;;;;;;;;;10131161;28;20413;-69
2023/01/17 11:43:53;;;;;;;45.78;27.42;;;;;;;;;;10134705;28;20131;-68
2023/01/17 11:49:08;;;;;;;40.55;27.13;;;;;;;;;;10125976;28;20048;-68
2023/01/17 11:54:28;;;;;;;42.33;26.17;;;;;;;;;;10130182;28;20517;-68
2023/01/17 11:59:33;;;;;;;35.17;23.95;;;;;;;;;;10127650;28;20094;-69
2023/01/17 12:04:30;;;;;;;38.65;23.92;;;;;;;;;;10122653;28;20041;-67
2023/01/17 12:09:25;;;;;;;33.17;21.30;;;;;;;;;;10124780;28;20144;-68
2023/01/17 12:14:47;;;;;;;38.05;22.63;;;;;;;;;;10123226;28;20537;-68
2023/01/17 12:20:04;;;;;;;25.65;20.02;;;;;;;;;;10075846;28;20099;-68
2023/01/17 12:25:02;;;;;;;32.35;21.13;;;;;;;;;;10117831;28;20055;-68
2023/01/17 12:30:20;;;;;;;30.85;22.55;;;;;;;;;;10119057;28;20428;-68
2023/01/17 12:35:26;;;;;;;29.83;20.88;;;;;;;;;;10121108;28;20098;-68
2023/01/17 12:40:22;;;;;;;26.13;19.30;;;;;;;;;;10122909;28;20098;-68
2023/01/17 12:45:23;;;;;;;28.17;18.38;;;;;;;;;;10146384;28;20048;-68
2023/01/17 12:50:46;;;;;;;25.88;19.17;;;;;;;;;;10145963;28;20059;-66
2023/01/17 12:55:49;;;;;;;24.23;17.60;;;;;;;;;;10102986;28;20045;-66
2023/01/17 13:00:45;;;;;;;23.60;17.63;;;;;;;;;;10107020;28;20095;-67
2023/01/17 13:05:43;;;;;;;24.67;16.67;;;;;;;;;;10112699;28;20079;-67
2023/01/17 13:11:00;;;;;;;29.95;19.67;;;;;;;;;;10110215;28;20048;-67
2023/01/17 13:16:09;;;;;;;24.65;17.60;;;;;;;;;;10126275;28;20049;-67
2023/01/17 13:21:26;;;;;;;25.75;17.90;;;;;;;;;;10110272;28;20048;-67
2023/01/17 13:26:44;;;;;;;17.80;13.63;;;;;;;;;;10120391;28;20052;-67
2023/01/17 13:31:43;;;;;;;20.33;14.73;;;;;;;;;;10111662;28;20127;-67
2023/01/17 13:37:15;;;;;;;19.42;14.07;;;;;;;;;;10126508;28;20119;-68
2023/01/17 13:42:40;;;;;;;17.45;12.43;;;;;;;;;;10114310;28;20052;-69
2023/01/17 13:47:39;;;;;;;15.95;12.50;;;;;;;;;;10113474;28;20060;-70
2023/01/17 13:52:32;;;;;;;14.43;12.20;;;;;;;;;;10130295;28;20442;-68
2023/01/17 13:57:28;;;;;;;20.20;13.13;;;;;;;;;;10119807;28;20041;-67
2023/01/17 14:02:31;;;;;;;14.20;10.98;;;;;;;;;;10144891;28;20091;-67
2023/01/17 14:07:25;;;;;;;14.82;11.65;;;;;;;;;;10128130;28;20048;-68
2023/01/17 14:12:18;;;;;;;15.70;11.00;;;;;;;;;;10116119;28;20734;-67
2023/01/17 14:17:24;;;;;;;13.65;11.50;;;;;;;;;;10107263;28;20073;-67
2023/01/17 14:22:17;;;;;;;12.77;10.20;;;;;;;;;;10112896;28;20083;-67
2023/01/17 14:27:15;;;;;;;16.38;11.55;;;;;;;;;;10120183;28;20037;-67
2023/01/17 14:32:22;;;;;;;11.63;9.98;;;;;;;;;;10110669;28;20049;-67
2023/01/17 14:37:19;;;;;;;11.85;9.20;;;;;;;;;;10136169;28;20066;-67
2023/01/17 14:42:32;;;;;;;14.20;11.05;;;;;;;;;;10111621;28;20052;-67
2023/01/17 14:47:29;;;;;;;11.90;10.80;;;;;;;;;;10127268;28;20060;-67
2023/01/17 14:52:22;;;;;;;15.18;10.27;;;;;;;;;;10133216;28;20465;-67
2023/01/17 14:57:28;;;;;;;11.65;9.65;;;;;;;;;;10125346;28;20650;-67
2023/01/17 15:02:22;;;;;;;9.65;8.43;;;;;;;;;;10135085;28;20044;-67
2023/01/17 15:07:15;;;;;;;15.57;9.52;;;;;;;;;;10112341;28;20501;-67
2023/01/17 15:12:10;;;;;;;13.02;9.88;;;;;;;;;;10127093;28;20044;-67
2023/01/17 15:17:11;;;;;;;14.30;8.43;;;;;;;;;;10145823;28;20135;-67
2023/01/17 15:22:04;;;;;;;10.07;8.45;;;;;;;;;;10124203;28;20582;-67
2023/01/17 15:26:57;;;;;;;8.60;7.32;;;;;;;;;;10109886;28;20048;-67
2023/01/17 15:31:57;;;;;;;9.93;8.40;;;;;;;;;;10128190;28;20098;-67
2023/01/17 15:36:56;;;;;;;9.27;6.55;;;;;;;;;;10139708;28;20055;-67
2023/01/17 15:41:53;;;;;;;8.88;7.43;;;;;;;;;;10133487;28;20045;-67
2023/01/17 15:46:46;;;;;;;7.53;6.18;;;;;;;;;;10153726;28;20574;-67
2023/01/17 15:51:41;;;;;;;8.63;7.35;;;;;;;;;;10110330;28;20577;-67
2023/01/17 15:56:35;;;;;;;10.63;7.55;;;;;;;;;;10149068;28;20102;-67
2023/01/17 16:01:28;;;;;;;9.82;8.18;;;;;;;;;;10127734;28;20045;-67
2023/01/17 16:06:34;;;;;;;8.02;7.13;;;;;;;;;;10130572;28;20056;-67
2023/01/17 16:11:28;;;;;;;13.23;9.23;;;;;;;;;;10121926;28;20049;-67
2023/01/17 16:16:25;;;;;;;9.30;7.57;;;;;;;;;;10115860;28;20053;-67
2023/01/17 16:21:43;;;;;;;8.55;7.65;;;;;;;;;;10113396;28;20478;-67
2023/01/17 16:26:37;;;;;;;10.45;8.50;;;;;;;;;;10128904;28;20075;-67
2023/01/17 16:31:30;;;;;;;13.02;9.65;;;;;;;;;;10148065;28;20482;-67
2023/01/17 16:36:23;;;;;;;9.40;8.38;;;;;;;;;;10123364;28;20067;-67
2023/01/17 16:41:17;;;;;;;9.70;7.93;;;;;;;;;;10132097;28;20127;-67
2023/01/17 16:46:11;;;;;;;8.50;7.47;;;;;;;;;;10131337;28;20052;-67
2023/01/17 16:51:06;;;;;;;8.05;7.28;;;;;;;;;;10130371;28;20515;-67
2023/01/17 16:56:08;;;;;;;8.70;7.30;;;;;;;;;;10112262;28;20151;-67
2023/01/17 17:01:02;;;;;;;6.93;5.70;;;;;;;;;;10125992;28;20044;-67
2023/01/17 17:05:57;;;;;;;7.40;5.97;;;;;;;;;;10119171;28;20491;-67
2023/01/17 17:10:51;;;;;;;8.25;6.22;;;;;;;;;;10114767;28;20048;-67
2023/01/17 17:15:45;;;;;;;8.00;7.20;;;;;;;;;;10130383;28;20052;-67
2023/01/17 17:20:37;;;;;;;8.50;7.55;;;;;;;;;;10124640;28;20052;-67
2023/01/17 17:25:31;;;;;;;7.78;6.93;;;;;;;;;;10117357;28;20067;-66
2023/01/17 17:30:26;;;;;;;8.73;7.85;;;;;;;;;;10140605;28;20052;-66
2023/01/17 17:35:20;;;;;;;10.93;9.38;;;;;;;;;;10137774;28;20069;-66
2023/01/17 17:40:13;;;;;;;14.63;11.20;;;;;;;;;;10129159;28;20578;-67
2023/01/17 17:45:08;;;;;;;8.40;7.57;;;;;;;;;;10124644;28;20080;-67
2023/01/17 17:50:01;;;;;;;7.30;6.60;;;;;;;;;;10116146;28;20045;-67
2023/01/17 17:54:56;;;;;;;8.18;7.18;;;;;;;;;;10104778;28;20036;-66
2023/01/17 17:59:49;;;;;;;6.82;6.13;;;;;;;;;;10105308;28;20060;-66
2023/01/17 18:04:43;;;;;;;7.47;5.88;;;;;;;;;;10107022;28;20411;-66
2023/01/17 18:09:38;;;;;;;5.47;4.95;;;;;;;;;;10114480;28;20714;-66
2023/01/17 18:14:31;;;;;;;6.68;5.38;;;;;;;;;;10104148;28;20049;-66
2023/01/17 18:19:25;;;;;;;7.32;6.63;;;;;;;;;;10106700;28;20425;-66
2023/01/17 18:24:21;;;;;;;8.55;7.15;;;;;;;;;;10109949;28;20044;-67
2023/01/17 18:29:15;;;;;;;10.50;8.35;;;;;;;;;;10146940;28;20131;-67
2023/01/17 18:34:11;;;;;;;8.07;7.28;;;;;;;;;;10135204;28;20056;-67
2023/01/17 18:39:11;;;;;;;14.15;8.48;;;;;;;;;;10134880;28;20055;-67
2023/01/17 18:44:04;;;;;;;8.23;7.35;;;;;;;;;;10121379;28;20122;-67
2023/01/17 18:48:58;;;;;;;9.15;8.02;;;;;;;;;;10136131;28;20439;-67
2023/01/17 18:53:51;;;;;;;11.80;8.23;;;;;;;;;;10119916;28;20065;-67
2023/01/17 18:58:46;;;;;;;8.38;7.28;;;;;;;;;;10134707;28;20052;-67
2023/01/17 19:03:42;;;;;;;10.73;7.78;;;;;;;;;;10138251;28;20501;-68
2023/01/17 19:08:35;;;;;;;10.80;9.52;;;;;;;;;;10138541;28;20144;-67
2023/01/17 19:13:28;;;;;;;11.07;9.82;;;;;;;;;;10141615;28;20049;-67
2023/01/17 19:18:21;;;;;;;10.55;9.00;;;;;;;;;;10133723;28;20052;-68
2023/01/17 19:23:15;;;;;;;11.77;9.10;;;;;;;;;;10144940;28;20106;-68
2023/01/17 19:28:08;;;;;;;10.70;9.60;;;;;;;;;;10139691;28;20106;-69
2023/01/17 19:33:02;;;;;;;11.20;9.95;;;;;;;;;;10134592;28;20509;-69
2023/01/17 19:37:56;;;;;;;9.93;8.73;;;;;;;;;;10146732;28;20417;-68
2023/01/17 19:42:50;;;;;;;11.77;8.77;;;;;;;;;;10138552;28;20463;-69
2023/01/17 19:47:43;;;;;;;10.75;9.65;;;;;;;;;;10131855;28;20476;-69
2023/01/17 19:52:36;;;;;;;11.50;10.02;;;;;;;;;;10147850;28;20087;-68
2023/01/17 19:57:33;;;;;;;16.10;10.65;;;;;;;;;;10154315;28;20523;-68
2023/01/17 20:02:26;;;;;;;11.90;9.55;;;;;;;;;;10145654;28;20133;-69
2023/01/17 20:07:21;;;;;;;11.18;9.90;;;;;;;;;;10131655;28;20432;-68
2023/01/17 20:12:15;;;;;;;13.57;11.23;;;;;;;;;;10123887;28;20516;-67
2023/01/17 20:17:09;;;;;;;14.05;11.18;;;;;;;;;;10126438;28;20508;-68
2023/01/17 20:22:04;;;;;;;14.10;12.13;;;;;;;;;;10133399;28;20063;-67
2023/01/17 20:26:57;;;;;;;14.57;12.52;;;;;;;;;;10146090;28;20048;-67
2023/01/17 20:31:51;;;;;;;13.95;12.55;;;;;;;;;;10150078;28;20117;-69
2023/01/17 20:36:43;;;;;;;18.00;14.85;;;;;;;;;;10144115;28;20045;-68
2023/01/17 20:41:39;;;;;;;16.55;12.55;;;;;;;;;;10143491;28;20045;-69
2023/01/17 20:46:37;;;;;;;13.63;11.27;;;;;;;;;;10151126;28;20087;-70
2023/01/17 20:51:38;;;;;;;14.82;11.98;;;;;;;;;;10135743;28;20080;-71
2023/01/17 20:56:36;;;;;;;14.95;11.45;;;;;;;;;;10143899;28;20044;-71
2023/01/17 21:01:30;;;;;;;15.60;14.00;;;;;;;;;;10144375;28;20102;-71
2023/01/17 21:06:23;;;;;;;16.08;12.23;;;;;;;;;;10132106;28;20060;-71
2023/01/17 21:11:20;;;;;;;22.63;19.80;;;;;;;;;;10133785;28;20051;-73
2023/01/17 21:16:15;;;;;;;14.88;11.85;;;;;;;;;;10132320;28;20048;-70
2023/01/17 21:21:12;;;;;;;10.88;9.77;;;;;;;;;;10134066;28;20057;-70
2023/01/17 21:26:08;;;;;;;12.63;10.43;;;;;;;;;;10133937;28;20052;-71
2023/01/17 21:31:27;;;;;;;10.63;9.15;;;;;;;;;;10140148;28;20124;-69
2023/01/17 21:36:22;;;;;;;10.25;8.95;;;;;;;;;;10127554;28;20053;-70
2023/01/17 21:41:16;;;;;;;10.45;8.93;;;;;;;;;;10146738;28;20584;-69
2023/01/17 21:46:08;;;;;;;16.10;12.73;;;;;;;;;;10142251;28;20137;-70
2023/01/17 21:51:05;;;;;;;24.17;17.90;;;;;;;;;;10145586;28;20056;-69
2023/01/17 22:01:20;;;;;;;25.98;19.30;;;;;;;;;;10142332;28;20089;-70
2023/01/17 22:06:13;;;;;;;28.23;20.10;;;;;;;;;;10155572;28;20412;-70
2023/01/17 22:11:12;;;;;;;25.17;17.92;;;;;;;;;;10131335;28;20131;-70
2023/01/17 22:16:09;;;;;;;26.13;19.02;;;;;;;;;;10137803;28;20047;-70
2023/01/17 22:21:07;;;;;;;30.48;17.95;;;;;;;;;;10130723;28;20053;-70
2023/01/17 22:26:20;;;;;;;27.13;19.23;;;;;;;;;;10142263;28;20044;-69
2023/01/17 22:31:19;;;;;;;25.67;19.23;;;;;;;;;;10146462;28;20106;-72
2023/01/17 22:36:13;;;;;;;;;;;;;;;;;;10137192;28;20260;-69
2023/01/17 22:41:09;;;;;;;33.22;19.38;;;;;;;;;;10133066;28;20012;-69
2023/01/17 22:46:08;;;;;;;25.52;18.20;;;;;;;;;;10134360;28;20123;-69
2023/01/17 22:51:03;;;;;;;24.48;19.15;;;;;;;;;;10127478;28;20450;-69
2023/01/17 22:56:01;;;;;;;24.83;17.42;;;;;;;;;;10145904;28;20425;-69
2023/01/17 23:01:02;;;;;;;27.30;19.17;;;;;;;;;;10134224;28;20415;-69
2023/01/17 23:05:55;;;;;;;25.20;18.90;;;;;;;;;;10138801;28;20067;-69
2023/01/17 23:21:24;;;;;;;26.17;16.50;;;;;;;;;;10148123;28;20044;-74
2023/01/17 23:26:17;;;;;;;25.25;16.98;;;;;;;;;;10142394;28;20108;-76
2023/01/17 23:31:11;;;;;;;23.45;18.67;;;;;;;;;;10115569;28;20106;-75
2023/01/17 23:36:08;;;;;;;26.02;18.05;;;;;;;;;;10122069;28;20048;-75
2023/01/17 23:46:12;;;;;;;26.10;17.85;;;;;;;;;;10142942;28;20130;-76
2023/01/17 23:51:07;;;;;;;25.35;18.73;;;;;;;;;;10121135;28;20095;-75
2023/01/17 23:56:17;;;;;;;28.67;18.83;;;;;;;;;;10118584;28;20052;-75
